Time;durP1;ratioP1;P1;durP2;ratioP2;P2;SDS_P1;SDS_P2;PMS_P1;PMS_P2;Temp;Humidity;BMP_temperature;BMP_pressure;BME280_temperature;BME280_humidity;BME280_pressure;Samples;Min_cycle;Max_cycle;Signal;HPM_P1;HPM_P2
2023/08/26 00:01:18;;;;;;;1.50;0.90;;;20.10;98.20;;;;;;4955395;28;20570;-81
2023/08/26 00:03:45;;;;;;;1.50;0.90;;;20.10;98.20;;;;;;4938802;28;20865;-81
2023/08/26 00:06:13;;;;;;;1.50;0.90;;;20.10;98.20;;;;;;4944376;28;20475;-82
2023/08/26 00:08:40;;;;;;;1.50;0.90;;;20.10;98.20;;;;;;4947613;28;20547;-81
2023/08/26 00:11:06;;;;;;;1.50;0.90;;;20.10;98.20;;;;;;4941928;28;20486;-82
2023/08/26 00:13:33;;;;;;;1.50;0.90;;;20.00;98.20;;;;;;4949843;28;20490;-81
2023/08/26 00:16:00;;;;;;;1.50;0.90;;;20.00;98.20;;;;;;4944250;28;20505;-81
2023/08/26 00:18:27;;;;;;;1.50;0.90;;;20.00;98.20;;;;;;4939223;29;20890;-80
2023/08/26 00:20:56;;;;;;;1.50;0.90;;;20.00;98.20;;;;;;4940284;28;20946;-80
2023/08/26 00:23:24;;;;;;;1.50;0.90;;;20.00;98.20;;;;;;4933104;29;20506;-81
2023/08/26 00:25:51;;;;;;;1.50;0.90;;;20.00;98.20;;;;;;4941561;28;20485;-80
2023/08/26 00:28:18;;;;;;;1.80;1.30;;;20.00;98.20;;;;;;4946132;28;20481;-80
2023/08/26 00:30:44;;;;;;;1.50;0.90;;;19.90;98.20;;;;;;4951143;28;20471;-81
2023/08/26 00:33:11;;;;;;;1.50;0.90;;;19.90;98.20;;;;;;4916250;28;20547;-81
2023/08/26 00:35:39;;;;;;;1.50;0.90;;;19.90;98.20;;;;;;4949740;28;20486;-81
2023/08/26 00:38:05;;;;;;;1.50;0.90;;;19.90;98.20;;;;;;4935175;28;20891;-80
2023/08/26 00:40:37;;;;;;;1.50;0.90;;;19.80;98.20;;;;;;4960491;28;20942;-81
2023/08/26 00:43:08;;;;;;;1.50;0.90;;;19.80;98.20;;;;;;4936287;28;20503;-79
2023/08/26 00:45:35;;;;;;;1.50;0.90;;;19.80;98.20;;;;;;4941605;28;20484;-80
2023/08/26 00:48:02;;;;;;;1.50;0.90;;;19.80;98.20;;;;;;4940039;28;20578;-80
2023/08/26 00:50:29;;;;;;;1.50;0.90;;;19.70;98.20;;;;;;4955188;28;20467;-80
2023/08/26 00:52:56;;;;;;;1.53;0.90;;;19.70;98.20;;;;;;4943233;28;20498;-80
2023/08/26 00:55:23;;;;;;;1.53;1.00;;;19.70;98.20;;;;;;4946016;28;20884;-81
2023/08/26 00:57:51;;;;;;;1.53;1.00;;;19.70;98.20;;;;;;4927099;28;20490;-81
2023/08/26 01:00:18;;;;;;;1.50;0.90;;;19.70;98.20;;;;;;4948775;28;20554;-79
2023/08/26 01:02:45;;;;;;;1.53;0.90;;;19.60;98.20;;;;;;4937700;28;20797;-80
2023/08/26 01:05:12;;;;;;;1.50;0.90;;;19.60;98.20;;;;;;4949741;28;20497;-80
2023/08/26 01:07:39;;;;;;;1.50;0.90;;;19.50;98.20;;;;;;4937194;28;20574;-79
2023/08/26 01:10:07;;;;;;;1.50;0.93;;;19.40;98.20;;;;;;4938210;28;20483;-80
2023/08/26 01:12:41;;;;;;;1.50;0.90;;;19.20;98.20;;;;;;4935728;28;20486;-81
2023/08/26 01:15:12;;;;;;;1.70;1.40;;;19.10;98.20;;;;;;4965248;28;20481;-80
2023/08/26 01:17:41;;;;;;;1.50;0.90;;;19.00;98.20;;;;;;4934110;28;20491;-79
2023/08/26 01:20:09;;;;;;;1.50;0.90;;;18.80;98.20;;;;;;4948910;28;20942;-81
2023/08/26 01:22:41;;;;;;;1.60;1.10;;;18.70;98.20;;;;;;4946776;28;20478;-81
2023/08/26 01:25:09;;;;;;;1.53;1.00;;;18.60;98.20;;;;;;4942830;28;20479;-80
2023/08/26 01:27:36;;;;;;;1.50;0.90;;;18.50;98.20;;;;;;4939783;28;20841;-80
2023/08/26 01:30:06;;;;;;;1.53;0.90;;;18.40;98.20;;;;;;4962969;28;20465;-81
2023/08/26 01:32:37;;;;;;;1.50;0.90;;;18.30;98.20;;;;;;4940726;28;20495;-80
2023/08/26 01:35:08;;;;;;;1.53;1.00;;;18.20;98.20;;;;;;4953843;28;20544;-81
2023/08/26 01:37:40;;;;;;;1.50;1.00;;;18.10;98.20;;;;;;4940966;28;20499;-80
2023/08/26 01:40:12;;;;;;;1.50;0.90;;;18.00;98.20;;;;;;4948433;28;20474;-80
2023/08/26 01:42:42;;;;;;;1.57;1.00;;;18.00;98.20;;;;;;4938751;28;20483;-80
2023/08/26 01:45:11;;;;;;;1.57;1.00;;;17.90;98.20;;;;;;4955778;28;20488;-80
2023/08/26 01:47:38;;;;;;;1.50;0.97;;;17.80;98.20;;;;;;4955160;28;20588;-80
2023/08/26 01:50:06;;;;;;;1.60;1.10;;;17.70;98.20;;;;;;4945525;28;20549;-80
2023/08/26 01:52:33;;;;;;;1.50;0.90;;;17.60;98.20;;;;;;4940708;28;20482;-80
2023/08/26 01:54:59;;;;;;;1.53;0.90;;;17.60;98.20;;;;;;4962151;28;20482;-80
2023/08/26 01:57:28;;;;;;;1.57;0.90;;;17.50;98.20;;;;;;4918124;28;20499;-79
2023/08/26 01:59:55;;;;;;;1.50;0.90;;;17.40;98.20;;;;;;4940890;28;20670;-79
2023/08/26 02:02:22;;;;;;;1.53;1.00;;;17.30;98.20;;;;;;4930612;28;20530;-80
2023/08/26 02:04:48;;;;;;;1.90;1.57;;;17.30;98.20;;;;;;4945708;28;20482;-80
2023/08/26 02:07:15;;;;;;;1.57;1.00;;;17.20;98.20;;;;;;4933465;28;21040;-80
2023/08/26 02:09:42;;;;;;;1.53;1.00;;;17.10;98.20;;;;;;4948171;28;20477;-81
2023/08/26 02:12:09;;;;;;;1.50;0.90;;;17.00;98.20;;;;;;4932950;28;20483;-80
2023/08/26 02:14:37;;;;;;;1.53;1.00;;;17.00;98.20;;;;;;4947257;28;20483;-80
2023/08/26 02:17:04;;;;;;;1.50;1.00;;;16.90;98.20;;;;;;4948215;28;20501;-80
2023/08/26 02:19:30;;;;;;;1.57;1.00;;;16.80;98.20;;;;;;4952958;28;20459;-80
2023/08/26 02:21:59;;;;;;;1.50;0.90;;;16.80;98.20;;;;;;4950476;28;20487;-81
2023/08/26 02:24:26;;;;;;;1.50;1.00;;;16.80;98.20;;;;;;4958136;28;20487;-80
2023/08/26 02:26:52;;;;;;;1.50;1.00;;;16.70;98.20;;;;;;4952355;28;20565;-80
2023/08/26 02:29:19;;;;;;;1.50;1.00;;;16.60;98.20;;;;;;4957015;28;20467;-81
2023/08/26 02:31:47;;;;;;;1.57;1.00;;;16.60;98.20;;;;;;4951603;28;20481;-80
2023/08/26 02:34:14;;;;;;;1.53;1.00;;;16.60;98.20;;;;;;4955748;28;20546;-80
2023/08/26 02:36:41;;;;;;;1.53;1.00;;;16.50;98.20;;;;;;4946184;28;21029;-80
2023/08/26 02:39:08;;;;;;;1.60;1.00;;;16.50;98.20;;;;;;4945015;28;20712;-80
2023/08/26 02:41:34;;;;;;;1.50;0.90;;;16.40;98.20;;;;;;4938938;28;20493;-80
2023/08/26 02:44:01;;;;;;;1.57;1.00;;;16.40;98.20;;;;;;4952928;28;20505;-80
2023/08/26 02:46:28;;;;;;;1.57;0.90;;;16.30;98.20;;;;;;4942049;28;20538;-80
2023/08/26 02:48:57;;;;;;;1.50;1.00;;;16.30;98.20;;;;;;4954305;28;20474;-79
2023/08/26 02:51:23;;;;;;;1.57;1.00;;;16.30;98.20;;;;;;4949610;28;20536;-80
2023/08/26 02:53:50;;;;;;;1.60;1.10;;;16.20;98.20;;;;;;4955121;28;20486;-80
2023/08/26 02:56:17;;;;;;;1.53;0.90;;;16.20;98.20;;;;;;4948498;28;20533;-80
2023/08/26 02:58:44;;;;;;;1.50;1.00;;;16.10;98.20;;;;;;4957908;28;20474;-79
2023/08/26 03:01:11;;;;;;;1.53;1.00;;;16.10;98.20;;;;;;4941905;28;20895;-80
2023/08/26 03:03:38;;;;;;;1.57;1.00;;;16.10;98.20;;;;;;4957533;28;20482;-80
2023/08/26 03:06:06;;;;;;;1.50;1.00;;;16.10;98.20;;;;;;4944982;28;20470;-80
2023/08/26 03:08:33;;;;;;;1.60;1.13;;;16.00;98.20;;;;;;4955402;28;20899;-80
2023/08/26 03:11:01;;;;;;;1.57;1.00;;;16.00;98.20;;;;;;4945048;28;20454;-80
2023/08/26 03:13:28;;;;;;;1.60;1.10;;;16.00;98.20;;;;;;4955147;28;20469;-80
2023/08/26 03:15:55;;;;;;;1.57;1.00;;;15.90;98.20;;;;;;4945235;28;20463;-80
2023/08/26 03:18:22;;;;;;;1.53;1.00;;;15.90;98.20;;;;;;4952629;28;20471;-81
2023/08/26 03:20:49;;;;;;;1.50;0.90;;;15.90;98.20;;;;;;4933343;28;20479;-81
2023/08/26 03:23:17;;;;;;;1.50;1.00;;;15.90;98.20;;;;;;4949099;28;20466;-80
2023/08/26 03:25:44;;;;;;;1.60;1.30;;;15.90;98.20;;;;;;4951468;28;20482;-80
2023/08/26 03:28:10;;;;;;;1.57;1.00;;;15.90;98.20;;;;;;4929559;28;20485;-80
2023/08/26 03:30:37;;;;;;;1.53;0.90;;;15.80;98.20;;;;;;4954780;28;20462;-80
2023/08/26 03:33:05;;;;;;;1.57;1.00;;;15.80;98.20;;;;;;4943910;28;20581;-80
2023/08/26 03:35:31;;;;;;;1.53;1.00;;;15.80;98.20;;;;;;4955168;28;20722;-80
2023/08/26 03:37:58;;;;;;;1.53;0.97;;;15.70;98.20;;;;;;4944382;28;20522;-80
2023/08/26 03:40:26;;;;;;;1.57;1.00;;;15.60;98.20;;;;;;4956392;28;20465;-80
2023/08/26 03:42:53;;;;;;;1.53;1.00;;;15.60;98.20;;;;;;4944842;28;20485;-80
2023/08/26 03:45:20;;;;;;;1.50;1.10;;;15.60;98.20;;;;;;4960094;28;20522;-80
2023/08/26 03:47:47;;;;;;;1.53;1.00;;;15.60;98.20;;;;;;4944654;28;20489;-80
2023/08/26 03:50:13;;;;;;;1.50;1.00;;;15.50;98.20;;;;;;4953858;28;20459;-80
2023/08/26 03:52:40;;;;;;;1.57;1.00;;;15.50;98.20;;;;;;4945079;28;20493;-80
2023/08/26 03:55:08;;;;;;;1.50;1.00;;;15.50;98.20;;;;;;4948054;28;21020;-80
2023/08/26 03:57:36;;;;;;;1.53;1.00;;;15.50;98.20;;;;;;4944731;28;20581;-81
2023/08/26 04:00:03;;;;;;;1.50;1.00;;;15.40;98.20;;;;;;4955091;28;20466;-80
2023/08/26 04:02:30;;;;;;;1.57;1.00;;;15.40;98.20;;;;;;4945825;28;20546;-80
2023/08/26 04:04:57;;;;;;;1.50;1.00;;;15.40;98.20;;;;;;4948665;28;20491;-81
2023/08/26 04:07:23;;;;;;;1.57;1.00;;;15.40;98.20;;;;;;4938813;28;20479;-81
2023/08/26 04:09:50;;;;;;;1.50;1.00;;;15.30;98.20;;;;;;4953442;28;20499;-81
2023/08/26 04:12:17;;;;;;;1.50;0.93;;;15.30;98.20;;;;;;4944295;28;20490;-81
2023/08/26 04:14:45;;;;;;;1.57;1.00;;;15.30;98.20;;;;;;4954211;28;20487;-81
2023/08/26 04:17:13;;;;;;;1.60;1.10;;;15.30;98.20;;;;;;4944150;28;20474;-81
2023/08/26 04:19:39;;;;;;;1.50;1.00;;;15.30;98.20;;;;;;4955394;28;20463;-80
2023/08/26 04:22:07;;;;;;;1.57;1.00;;;15.20;98.20;;;;;;4937166;28;20501;-81
2023/08/26 04:24:34;;;;;;;1.53;1.00;;;15.20;98.20;;;;;;4955562;28;20478;-81
2023/08/26 04:27:00;;;;;;;1.53;1.00;;;15.20;98.20;;;;;;4936251;28;20535;-82
2023/08/26 04:29:38;;;;;;;1.50;1.00;;;15.20;98.20;;;;;;4944516;28;20471;-81
2023/08/26 04:32:06;;;;;;;1.60;1.00;;;15.20;98.20;;;;;;4944387;28;20482;-81
2023/08/26 04:34:34;;;;;;;1.50;0.93;;;15.10;98.20;;;;;;4953521;28;20555;-81
2023/08/26 04:37:00;;;;;;;1.57;1.00;;;15.10;98.20;;;;;;4942517;28;20539;-80
2023/08/26 04:39:27;;;;;;;1.57;1.00;;;15.10;98.20;;;;;;4954914;28;20848;-81
2023/08/26 04:41:54;;;;;;;1.50;1.00;;;15.10;98.20;;;;;;4943534;28;20526;-81
2023/08/26 04:44:21;;;;;;;1.60;1.00;;;15.10;98.20;;;;;;4947481;28;20487;-81
2023/08/26 04:47:22;;;;;;;1.53;1.00;;;15.00;98.20;;;;;;4959712;23;20505;-81
2023/08/26 04:49:49;;;;;;;1.57;1.10;;;15.00;98.20;;;;;;4897719;29;20535;-83
2023/08/26 04:52:26;;;;;;;1.50;0.90;;;15.00;98.20;;;;;;4885733;29;21079;-83
2023/08/26 04:54:53;;;;;;;1.57;1.00;;;15.00;98.20;;;;;;4892831;29;20478;-82
2023/08/26 04:57:20;;;;;;;1.60;1.10;;;15.00;98.20;;;;;;4902502;28;20491;-83
2023/08/26 04:59:47;;;;;;;1.60;1.10;;;15.00;98.20;;;;;;4953256;28;20463;-82
2023/08/26 05:02:14;;;;;;;1.60;1.10;;;14.90;98.20;;;;;;4943232;28;20479;-84
2023/08/26 05:04:44;;;;;;;1.53;0.90;;;14.90;98.20;;;;;;4956117;28;20538;-82
2023/08/26 05:07:14;;;;;;;1.60;1.00;;;14.90;98.20;;;;;;4946248;28;20964;-82
2023/08/26 05:09:41;;;;;;;1.53;1.00;;;14.90;98.20;;;;;;4958405;28;20558;-83
2023/08/26 05:12:08;;;;;;;1.60;1.03;;;14.90;98.20;;;;;;4947145;28;20879;-81
2023/08/26 05:14:36;;;;;;;1.57;1.10;;;14.90;98.20;;;;;;4953390;28;20469;-80
2023/08/26 05:17:02;;;;;;;1.50;1.00;;;14.90;98.20;;;;;;4940549;28;21022;-82
2023/08/26 05:19:29;;;;;;;1.50;1.00;;;14.90;98.20;;;;;;4956331;28;20843;-80
2023/08/26 05:22:01;;;;;;;1.50;1.00;;;14.90;98.20;;;;;;4946384;28;20581;-83
2023/08/26 05:24:50;;;;;;;1.60;1.10;;;14.90;98.20;;;;;;4952902;28;20467;-80
2023/08/26 05:27:17;;;;;;;1.60;1.00;;;14.90;98.20;;;;;;4946937;28;20482;-83
2023/08/26 05:30:09;;;;;;;1.50;1.00;;;14.90;98.20;;;;;;4956748;28;20538;-83
2023/08/26 05:32:43;;;;;;;1.57;1.00;;;15.00;98.20;;;;;;4941199;28;20483;-83
2023/08/26 05:35:51;;;;;;;1.60;1.00;;;15.00;98.20;;;;;;4956747;28;20472;-83
2023/08/26 05:38:19;;;;;;;1.60;1.10;;;15.10;98.20;;;;;;4930017;28;20862;-83
2023/08/26 05:40:46;;;;;;;1.57;1.00;;;15.10;98.20;;;;;;4956829;28;20663;-83
2023/08/26 05:43:13;;;;;;;1.50;1.00;;;15.20;98.20;;;;;;4933099;28;20475;-83
2023/08/26 05:45:40;;;;;;;1.60;1.10;;;15.20;98.20;;;;;;4954495;28;20550;-80
2023/08/26 05:48:07;;;;;;;1.60;1.10;;;15.30;98.20;;;;;;4945277;28;20481;-83
2023/08/26 05:50:34;;;;;;;1.57;1.00;;;15.50;98.20;;;;;;4954078;28;20633;-84
2023/08/26 05:53:01;;;;;;;1.53;1.00;;;15.60;98.20;;;;;;4942544;28;20495;-84
2023/08/26 05:55:35;;;;;;;1.57;1.00;;;15.80;98.20;;;;;;4957355;28;20463;-83
2023/08/26 05:58:02;;;;;;;1.50;0.90;;;15.90;98.20;;;;;;4947122;28;20483;-83
2023/08/26 06:00:30;;;;;;;1.60;1.10;;;16.10;98.20;;;;;;4965036;28;20523;-82
2023/08/26 06:02:59;;;;;;;1.60;1.10;;;16.20;98.20;;;;;;4953991;28;20465;-81
2023/08/26 06:05:26;;;;;;;1.53;1.00;;;16.40;98.20;;;;;;4963013;28;20456;-81
2023/08/26 06:07:55;;;;;;;1.60;1.00;;;16.60;98.20;;;;;;4949960;28;20517;-82
2023/08/26 06:10:23;;;;;;;1.60;1.10;;;16.80;98.20;;;;;;4958615;28;20504;-83
2023/08/26 06:12:53;;;;;;;1.50;1.00;;;16.90;98.20;;;;;;4949518;28;20490;-80
2023/08/26 06:15:19;;;;;;;1.60;1.10;;;17.10;98.20;;;;;;4961327;28;20481;-83
2023/08/26 06:17:46;;;;;;;1.57;0.90;;;17.20;98.20;;;;;;4947260;28;20479;-80
2023/08/26 06:20:13;;;;;;;1.53;1.00;;;17.40;98.20;;;;;;4962265;28;20471;-82
2023/08/26 06:23:09;;;;;;;1.50;1.00;;;17.50;98.20;;;;;;4947428;28;20601;-83
2023/08/26 06:25:36;;;;;;;1.57;0.97;;;17.60;98.20;;;;;;4959911;28;20489;-83
2023/08/26 06:28:05;;;;;;;1.60;1.10;;;17.80;98.20;;;;;;4944145;28;20474;-83
2023/08/26 06:30:32;;;;;;;1.60;1.00;;;17.90;98.20;;;;;;4963691;28;20778;-82
2023/08/26 06:33:02;;;;;;;1.57;0.90;;;18.00;98.20;;;;;;4942884;28;20490;-79
2023/08/26 06:35:29;;;;;;;1.60;1.00;;;18.20;98.20;;;;;;4960957;28;20462;-79
2023/08/26 06:37:56;;;;;;;1.50;1.00;;;18.30;98.20;;;;;;4943820;28;20501;-79
2023/08/26 06:43:32;;;;;;;1.50;0.90;;;18.50;98.20;;;;;;4930267;28;20452;-81
2023/08/26 06:45:59;;;;;;;1.50;0.90;;;18.60;98.20;;;;;;4942725;28;20501;-81
2023/08/26 06:48:26;;;;;;;1.53;1.00;;;18.70;98.20;;;;;;4953953;28;20487;-80
2023/08/26 06:50:53;;;;;;;1.57;0.90;;;18.80;98.20;;;;;;4947292;28;21146;-80
2023/08/26 06:53:21;;;;;;;1.53;0.97;;;18.90;98.20;;;;;;4953965;28;20471;-81
2023/08/26 06:55:50;;;;;;;1.57;1.00;;;19.00;98.20;;;;;;4950382;28;20507;-81
2023/08/26 06:58:23;;;;;;;1.53;0.90;;;19.10;98.20;;;;;;4963094;28;20493;-81
2023/08/26 07:00:56;;;;;;;1.50;1.00;;;19.30;98.20;;;;;;4952382;28;20476;-82
2023/08/26 07:03:24;;;;;;;1.70;1.10;;;19.40;98.20;;;;;;4957178;28;20470;-81
2023/08/26 07:05:51;;;;;;;1.50;0.90;;;19.60;98.20;;;;;;4950757;28;20489;-80
2023/08/26 07:08:21;;;;;;;1.57;0.90;;;19.70;98.20;;;;;;4959416;28;20518;-80
2023/08/26 07:10:48;;;;;;;1.50;0.90;;;19.80;98.20;;;;;;4957289;28;20553;-81
2023/08/26 07:13:15;;;;;;;1.50;0.90;;;19.90;98.20;;;;;;4956431;28;20514;-83
2023/08/26 07:16:16;;;;;;;1.50;0.90;;;19.90;98.20;;;;;;4962434;28;20480;-80
2023/08/26 07:25:21;;;;;;;1.50;0.90;;;20.20;98.20;;;;;;4843470;29;20468;-81
2023/08/26 07:27:57;;;;;;;1.53;0.90;;;20.40;98.20;;;;;;4935607;28;20518;-80
2023/08/26 07:30:26;;;;;;;1.50;0.90;;;20.50;98.20;;;;;;4956870;28;20542;-79
2023/08/26 07:32:54;;;;;;;1.50;0.90;;;20.60;98.20;;;;;;4946578;28;20478;-80
2023/08/26 07:35:21;;;;;;;1.57;1.00;;;20.80;98.20;;;;;;4953668;28;20467;-79
2023/08/26 07:37:48;;;;;;;1.50;0.90;;;20.90;98.20;;;;;;4943358;28;21049;-79
2023/08/26 07:40:47;;;;;;;1.50;0.90;;;21.00;98.20;;;;;;4957276;28;20505;-83
2023/08/26 07:43:14;;;;;;;1.50;0.90;;;21.10;98.20;;;;;;4929148;28;20514;-79
2023/08/26 07:45:41;;;;;;;1.50;0.90;;;21.30;98.20;;;;;;4951726;28;20495;-79
2023/08/26 07:48:09;;;;;;;1.53;0.90;;;21.40;97.70;;;;;;4939863;28;20926;-80
2023/08/26 07:50:38;;;;;;;1.50;0.90;;;21.40;98.20;;;;;;4957176;28;20482;-80
2023/08/26 07:53:05;;;;;;;1.50;0.90;;;21.60;98.20;;;;;;4940725;28;20498;-79
2023/08/26 07:55:33;;;;;;;1.50;0.90;;;21.70;97.30;;;;;;4959432;28;20458;-81
2023/08/26 07:58:00;;;;;;;1.50;0.90;;;21.70;97.10;;;;;;4937513;28;20492;-80
2023/08/26 08:00:29;;;;;;;1.50;0.90;;;21.80;97.10;;;;;;4956471;28;20463;-81
2023/08/26 08:02:56;;;;;;;1.50;0.90;;;21.90;97.10;;;;;;4948843;28;20483;-80
2023/08/26 08:07:55;;;;;;;1.50;0.90;;;22.00;95.40;;;;;;5043782;23;20575;-80
2023/08/26 08:10:22;;;;;;;1.53;0.90;;;22.10;94.60;;;;;;4943495;28;21005;-79
2023/08/26 08:13:05;;;;;;;1.50;0.90;;;22.10;95.70;;;;;;4926005;28;20487;-80
2023/08/26 08:15:32;;;;;;;1.50;0.90;;;22.30;94.60;;;;;;4948251;28;21045;-80
2023/08/26 08:17:59;;;;;;;1.53;0.90;;;22.40;94.70;;;;;;4934533;28;20474;-79
2023/08/26 08:20:27;;;;;;;1.50;0.87;;;22.40;92.20;;;;;;4948313;28;20481;-81
2023/08/26 08:22:55;;;;;;;1.50;0.90;;;22.40;92.60;;;;;;4937517;28;20483;-81
2023/08/26 08:25:41;;;;;;;1.50;0.90;;;22.40;91.70;;;;;;4949180;28;20469;-81
2023/08/26 08:28:08;;;;;;;1.50;0.90;;;22.40;92.80;;;;;;4939289;28;20494;-80
2023/08/26 08:30:35;;;;;;;1.50;0.90;;;22.50;92.20;;;;;;4947150;28;20462;-82
2023/08/26 08:33:03;;;;;;;1.50;0.90;;;22.50;93.40;;;;;;4936749;28;20507;-81
2023/08/26 08:35:37;;;;;;;1.50;0.90;;;22.60;92.70;;;;;;4951495;28;20993;-83
2023/08/26 08:38:05;;;;;;;1.50;0.90;;;22.80;90.40;;;;;;4939043;28;20542;-80
2023/08/26 08:40:32;;;;;;;1.50;0.90;;;22.80;89.60;;;;;;4951166;28;20474;-80
2023/08/26 08:43:03;;;;;;;1.50;0.90;;;22.80;89.90;;;;;;4942097;28;20694;-82
2023/08/26 08:45:30;;;;;;;1.50;0.90;;;22.90;91.70;;;;;;4952400;28;20498;-82
2023/08/26 08:48:32;;;;;;;1.50;0.90;;;23.00;89.70;;;;;;4939863;28;20510;-81
2023/08/26 08:51:00;;;;;;;1.50;0.90;;;23.00;89.90;;;;;;4893399;28;20478;-81
2023/08/26 08:53:31;;;;;;;1.50;0.90;;;23.00;89.50;;;;;;4946889;28;20474;-83
2023/08/26 08:56:00;;;;;;;1.50;0.83;;;23.10;91.20;;;;;;4935851;28;20490;-82
2023/08/26 08:58:34;;;;;;;1.50;0.87;;;23.20;91.00;;;;;;4942915;28;20823;-84
2023/08/26 09:01:04;;;;;;;1.50;0.87;;;23.30;88.80;;;;;;4935355;28;20467;-83
2023/08/26 09:06:38;;;;;;;1.50;0.90;;;23.40;88.50;;;;;;4935676;28;20648;-81
2023/08/26 09:09:11;;;;;;;1.50;0.90;;;23.40;89.30;;;;;;4945965;28;20471;-82
2023/08/26 09:11:39;;;;;;;1.60;1.10;;;23.50;88.10;;;;;;4937464;28;21096;-80
2023/08/26 09:14:22;;;;;;;1.50;0.90;;;23.60;87.50;;;;;;4945036;28;20482;-82
2023/08/26 09:16:56;;;;;;;1.50;0.90;;;23.70;87.90;;;;;;4932799;28;20521;-82
2023/08/26 09:19:24;;;;;;;1.50;0.80;;;23.80;88.60;;;;;;4946597;28;20490;-82
2023/08/26 09:21:54;;;;;;;1.50;0.83;;;23.90;87.60;;;;;;4934205;28;21112;-81
2023/08/26 09:24:47;;;;;;;1.50;1.00;;;24.00;86.00;;;;;;4950894;28;20576;-82
2023/08/26 09:27:58;;;;;;;1.50;0.90;;;24.20;86.60;;;;;;4930915;28;20551;-82
2023/08/26 09:30:25;;;;;;;1.50;0.83;;;24.40;86.40;;;;;;4941709;28;20951;-81
2023/08/26 09:32:55;;;;;;;1.50;0.80;;;24.60;85.60;;;;;;4934584;28;20889;-81
2023/08/26 09:35:23;;;;;;;1.50;0.90;;;24.60;86.20;;;;;;4946072;28;20506;-81
2023/08/26 09:37:58;;;;;;;1.50;0.87;;;24.70;86.40;;;;;;4940420;28;20505;-82
2023/08/26 09:40:27;;;;;;;1.60;0.90;;;24.90;86.70;;;;;;4945117;28;20726;-83
2023/08/26 09:42:55;;;;;;;1.50;0.80;;;25.00;83.60;;;;;;4934058;28;20498;-84
2023/08/26 09:45:22;;;;;;;1.50;0.90;;;25.10;84.60;;;;;;4945623;28;20474;-83
2023/08/26 09:47:58;;;;;;;1.47;0.80;;;25.10;84.30;;;;;;4941819;28;20605;-80
2023/08/26 09:50:35;;;;;;;1.87;1.60;;;25.10;83.70;;;;;;4957156;28;20467;-82
2023/08/26 09:53:03;;;;;;;1.50;0.87;;;25.10;85.10;;;;;;4933586;28;20963;-80
2023/08/26 09:55:33;;;;;;;1.40;0.90;;;25.10;83.70;;;;;;4947439;28;20525;-81
2023/08/26 09:58:10;;;;;;;1.40;0.80;;;25.20;84.80;;;;;;4935167;28;20504;-82
2023/08/26 10:00:38;;;;;;;1.50;0.90;;;25.10;82.50;;;;;;4943284;28;20470;-82
2023/08/26 10:03:09;;;;;;;1.47;0.87;;;25.00;84.50;;;;;;4934205;28;20693;-80
2023/08/26 10:05:38;;;;;;;1.47;0.97;;;25.10;84.60;;;;;;4942479;28;20473;-80
2023/08/26 10:08:11;;;;;;;1.50;0.90;;;25.20;84.50;;;;;;4934554;28;20520;-81
2023/08/26 10:10:55;;;;;;;1.50;0.90;;;25.40;84.00;;;;;;4945618;28;21152;-81
2023/08/26 10:13:27;;;;;;;1.43;0.80;;;25.30;83.50;;;;;;4933678;28;20537;-81
2023/08/26 10:16:02;;;;;;;1.47;0.87;;;25.30;83.10;;;;;;4937155;28;20502;-84
2023/08/26 10:25:00;;;;;;;1.47;0.80;;;25.80;83.00;;;;;;4848032;29;20460;-80
2023/08/26 10:30:19;;;;;;;1.50;0.80;;;26.20;82.40;;;;;;4902742;29;20536;-83
2023/08/26 10:33:05;;;;;;;1.50;0.80;;;26.30;81.10;;;;;;4903571;29;20866;-80
2023/08/26 10:35:44;;;;;;;1.50;0.90;;;26.40;80.50;;;;;;4907359;29;20510;-81
2023/08/26 10:42:23;;;;;;;1.50;0.87;;;26.70;78.50;;;;;;4887103;28;20548;-84
2023/08/26 10:45:08;;;;;;;1.50;0.80;;;26.80;80.40;;;;;;4923885;29;20472;-81
2023/08/26 10:47:56;;;;;;;1.50;0.80;;;26.80;77.30;;;;;;4912031;29;20543;-82
2023/08/26 10:51:20;;;;;;;1.47;0.83;;;26.70;78.10;;;;;;4918183;29;20932;-81
2023/08/26 10:53:53;;;;;;;1.50;0.90;;;26.70;79.20;;;;;;4879329;29;20491;-82
2023/08/26 10:57:08;;;;;;;1.47;0.80;;;26.90;78.30;;;;;;4913730;29;20509;-80
2023/08/26 10:59:53;;;;;;;1.47;0.80;;;26.90;78.30;;;;;;4921152;29;20800;-79
2023/08/26 11:02:31;;;;;;;1.50;0.80;;;26.70;77.60;;;;;;4916049;28;20916;-79
2023/08/26 11:07:51;;;;;;;1.50;0.80;;;25.90;79.60;;;;;;4902335;28;20614;-79
2023/08/26 11:10:42;;;;;;;1.50;0.90;;;25.80;80.20;;;;;;4914317;29;20474;-80
2023/08/26 11:13:19;;;;;;;2.87;1.83;;;25.70;80.60;;;;;;4920020;28;20637;-80
2023/08/26 11:16:09;;;;;;;1.50;0.90;;;25.70;80.40;;;;;;4918626;29;20525;-81
2023/08/26 11:18:59;;;;;;;1.50;0.83;;;25.60;81.90;;;;;;4893047;29;20533;-80
2023/08/26 11:24:55;;;;;;;1.50;0.80;;;26.30;79.40;;;;;;4920418;29;20471;-80
2023/08/26 11:27:29;;;;;;;1.50;1.20;;;26.70;79.40;;;;;;4919566;29;20488;-79
2023/08/26 11:30:19;;;;;;;1.43;0.80;;;27.00;79.30;;;;;;4910659;29;20480;-80
2023/08/26 11:32:56;;;;;;;1.50;0.90;;;27.30;77.10;;;;;;4920826;28;20493;-80
2023/08/26 11:35:31;;;;;;;1.50;0.80;;;27.50;76.10;;;;;;4917985;29;20484;-81
2023/08/26 11:38:10;;;;;;;1.50;0.80;;;27.40;77.10;;;;;;4901957;28;20547;-80
2023/08/26 11:40:55;;;;;;;1.47;0.87;;;27.30;78.40;;;;;;4919359;29;20470;-80
2023/08/26 11:46:41;;;;;;;1.50;0.80;;;27.70;77.90;;;;;;4760606;29;20475;-81
2023/08/26 11:49:34;;;;;;;1.50;0.90;;;27.90;77.10;;;;;;4906309;29;20472;-81
2023/08/26 11:52:11;;;;;;;1.47;0.80;;;28.10;77.90;;;;;;4908775;28;20493;-81
2023/08/26 11:57:25;;;;;;;1.50;0.80;;;27.70;77.10;;;;;;4937493;28;20924;-82
2023/08/26 11:59:53;;;;;;;1.50;0.83;;;27.70;76.60;;;;;;4953293;28;20581;-83
2023/08/26 12:02:22;;;;;;;1.43;0.80;;;27.60;77.80;;;;;;4946383;28;20514;-82
2023/08/26 12:04:57;;;;;;;1.50;0.90;;;27.30;78.60;;;;;;4954299;28;20526;-81
2023/08/26 12:07:25;;;;;;;1.50;0.83;;;27.10;79.80;;;;;;4937592;28;20486;-80
2023/08/26 12:09:53;;;;;;;1.50;0.80;;;26.90;79.70;;;;;;4951108;28;20480;-81
2023/08/26 12:12:21;;;;;;;1.50;0.87;;;26.60;79.80;;;;;;4942920;28;21029;-81
2023/08/26 12:14:51;;;;;;;1.50;0.80;;;26.40;80.60;;;;;;4956284;28;20549;-81
2023/08/26 12:17:19;;;;;;;1.43;0.80;;;26.20;80.80;;;;;;4938534;28;20482;-81
2023/08/26 12:19:47;;;;;;;1.50;0.80;;;26.40;80.50;;;;;;4951180;28;20552;-81
2023/08/26 12:22:20;;;;;;;1.50;1.00;;;26.50;80.70;;;;;;4934616;28;20782;-80
2023/08/26 12:24:49;;;;;;;1.50;0.80;;;26.80;79.20;;;;;;4950508;28;20819;-80
2023/08/26 12:27:22;;;;;;;1.50;0.90;;;27.00;79.50;;;;;;4944699;28;20478;-81
2023/08/26 12:29:51;;;;;;;1.43;0.80;;;27.30;80.00;;;;;;4953318;28;20915;-83
2023/08/26 12:32:26;;;;;;;1.50;0.80;;;27.20;77.70;;;;;;4944289;28;20593;-80
2023/08/26 12:34:54;;;;;;;1.47;0.90;;;27.00;76.80;;;;;;4937644;28;20519;-82
2023/08/26 12:37:24;;;;;;;1.50;0.83;;;26.80;78.70;;;;;;4945728;28;20486;-80
2023/08/26 12:39:51;;;;;;;1.50;0.80;;;26.70;79.20;;;;;;4950970;28;20967;-81
2023/08/26 12:43:05;;;;;;;1.40;0.90;;;26.50;77.50;;;;;;4938703;28;20554;-82
2023/08/26 12:46:36;;;;;;;;;;;;;;;;;;;;;
2023/08/26 12:49:03;;;;;;;1.50;0.80;;;25.90;78.50;;;;;;4875832;29;20572;-80
2023/08/26 12:51:34;;;;;;;1.47;0.80;;;25.80;79.60;;;;;;4932259;28;20683;-80
2023/08/26 12:54:04;;;;;;;1.50;0.90;;;25.60;80.00;;;;;;4951483;28;20477;-82
2023/08/26 12:56:32;;;;;;;1.40;0.90;;;25.60;81.20;;;;;;4937185;28;20540;-80
2023/08/26 12:58:59;;;;;;;1.50;0.90;;;25.70;79.50;;;;;;4947811;28;20509;-81
2023/08/26 13:01:30;;;;;;;1.40;0.90;;;25.80;80.00;;;;;;4938933;28;20488;-80
2023/08/26 13:04:36;;;;;;;1.50;0.90;;;25.90;78.40;;;;;;4949500;28;20486;-81
2023/08/26 13:10:21;;;;;;;1.40;0.80;;;25.80;77.70;;;;;;4946571;23;20509;-81
2023/08/26 13:12:54;;;;;;;1.50;0.80;;;25.70;79.40;;;;;;4916419;28;20492;-82
2023/08/26 13:15:26;;;;;;;1.50;0.90;;;25.90;79.10;;;;;;4949602;28;21030;-82
2023/08/26 13:17:58;;;;;;;1.47;0.90;;;26.30;77.90;;;;;;4915995;28;20995;-81
2023/08/26 13:20:28;;;;;;;1.50;0.90;;;26.60;76.90;;;;;;4931415;29;20510;-79
2023/08/26 15:30:35;;;;;;;1.43;0.90;;;25.80;78.10;;;;;;4951890;28;20688;-81
2023/08/26 15:33:09;;;;;;;1.50;0.80;;;26.00;76.80;;;;;;4928488;28;20939;-81
2023/08/26 15:35:43;;;;;;;1.50;0.83;;;26.20;76.10;;;;;;4943818;28;20492;-81
2023/08/26 15:38:10;;;;;;;1.47;0.80;;;26.30;76.70;;;;;;4932527;29;20521;-80
2023/08/26 15:40:37;;;;;;;1.50;0.80;;;26.30;76.30;;;;;;4933703;29;20487;-81
2023/08/26 15:43:06;;;;;;;1.50;1.00;;;26.40;78.30;;;;;;4931548;28;21033;-81
2023/08/26 15:45:33;;;;;;;1.40;0.80;;;26.60;77.90;;;;;;4940533;28;20542;-80
2023/08/26 15:48:02;;;;;;;1.50;0.80;;;26.70;80.40;;;;;;4924565;28;20496;-85
2023/08/26 15:50:38;;;;;;;1.50;0.90;;;26.90;79.40;;;;;;4933598;29;20507;-83
2023/08/26 15:53:05;;;;;;;1.50;0.90;;;26.80;76.60;;;;;;4924360;28;20711;-81
2023/08/26 15:55:37;;;;;;;1.43;0.80;;;26.60;75.50;;;;;;4935357;28;20471;-81
2023/08/26 15:58:06;;;;;;;1.50;0.90;;;26.40;76.10;;;;;;4924844;29;20488;-81
2023/08/26 16:00:33;;;;;;;1.47;0.80;;;26.30;77.20;;;;;;4932748;29;20487;-81